Time;durP1;ratioP1;P1;durP2;ratioP2;P2;SDS_P1;SDS_P2;PMS_P1;PMS_P2;Temp;Humidity;BMP_temperature;BMP_pressure;BME280_temperature;BME280_humidity;BME280_pressure;Samples;Min_cycle;Max_cycle;Signal;HPM_P1;HPM_P2
2021/04/24 00:00:32;;;;;;;9.20;3.30;;;6.80;99.90;;;;;;5043726;28;20429;-65
2021/04/24 00:02:58;;;;;;;9.57;3.22;;;6.70;99.90;;;;;;5048938;28;20064;-65
2021/04/24 00:05:28;;;;;;;14.10;4.35;;;6.70;99.90;;;;;;5048660;28;20401;-67
2021/04/24 00:07:55;;;;;;;11.88;3.42;;;6.70;99.90;;;;;;5049167;28;20486;-66
2021/04/24 00:10:22;;;;;;;10.85;4.53;;;6.60;99.90;;;;;;5048750;28;20039;-65
2021/04/24 00:12:47;;;;;;;15.52;3.50;;;6.60;99.90;;;;;;5048887;28;20099;-66
2021/04/24 00:15:14;;;;;;;13.77;4.15;;;6.50;99.90;;;;;;5049018;28;20041;-65
2021/04/24 00:17:40;;;;;;;13.93;3.95;;;6.50;99.90;;;;;;5048086;28;20033;-66
2021/04/24 00:20:08;;;;;;;9.60;3.33;;;6.50;99.90;;;;;;5047707;28;20106;-66
2021/04/24 00:22:34;;;;;;;11.68;4.10;;;6.50;99.90;;;;;;5048210;28;20033;-65
2021/04/24 00:24:59;;;;;;;9.80;4.25;;;6.50;99.90;;;;;;5047063;28;20036;-66
2021/04/24 00:27:25;;;;;;;10.00;3.78;;;6.50;99.90;;;;;;5030051;28;20049;-65
2021/04/24 00:29:51;;;;;;;9.65;4.07;;;6.50;99.90;;;;;;5046694;28;20033;-66
2021/04/24 00:32:16;;;;;;;13.95;4.15;;;6.40;99.90;;;;;;5047051;28;20037;-65
2021/04/24 00:34:42;;;;;;;12.25;4.40;;;6.40;99.90;;;;;;5047059;28;20041;-65
2021/04/24 00:37:07;;;;;;;12.82;3.83;;;6.40;99.90;;;;;;5047101;28;20052;-65
2021/04/24 00:39:33;;;;;;;15.00;3.67;;;6.30;99.90;;;;;;5047420;28;20065;-65
2021/04/24 00:41:59;;;;;;;10.15;4.28;;;6.20;99.90;;;;;;5048174;28;20090;-66
2021/04/24 00:44:24;;;;;;;12.50;3.88;;;6.20;99.90;;;;;;5048202;28;20044;-66
2021/04/24 00:46:50;;;;;;;14.65;3.80;;;6.20;99.90;;;;;;5047911;28;20051;-65
2021/04/24 00:49:15;;;;;;;10.35;3.80;;;6.30;99.90;;;;;;5047465;28;20037;-65
2021/04/24 00:51:41;;;;;;;10.57;3.70;;;6.20;99.90;;;;;;5047726;28;20025;-66
2021/04/24 00:54:07;;;;;;;14.48;5.10;;;6.10;99.90;;;;;;5048072;28;20041;-65
2021/04/24 00:56:34;;;;;;;10.88;3.85;;;6.10;99.90;;;;;;5048091;28;20037;-65
2021/04/24 00:59:01;;;;;;;8.70;3.58;;;6.00;99.90;;;;;;5047282;28;20040;-65
2021/04/24 01:01:26;;;;;;;10.50;4.50;;;6.00;99.90;;;;;;5048784;28;20037;-65
2021/04/24 01:03:52;;;;;;;14.02;4.78;;;6.00;99.90;;;;;;5048517;28;20413;-65
2021/04/24 01:06:18;;;;;;;11.93;4.50;;;6.00;99.90;;;;;;5049204;28;20457;-65
2021/04/24 01:08:43;;;;;;;9.15;3.70;;;5.90;99.90;;;;;;5030640;28;20037;-65
2021/04/24 01:11:09;;;;;;;10.77;4.63;;;5.90;99.90;;;;;;5049407;28;20033;-66
2021/04/24 01:13:34;;;;;;;10.65;4.78;;;5.90;99.90;;;;;;5050175;28;20050;-66
2021/04/24 01:16:00;;;;;;;9.30;3.67;;;5.90;99.90;;;;;;5052644;28;20059;-65
2021/04/24 01:18:27;;;;;;;16.30;3.85;;;5.90;99.90;;;;;;5062562;28;20029;-66
2021/04/24 01:20:54;;;;;;;13.40;4.40;;;5.90;99.90;;;;;;5067906;28;20321;-67
2021/04/24 01:23:20;;;;;;;16.67;4.20;;;5.90;99.90;;;;;;5065618;28;20037;-66
2021/04/24 01:25:46;;;;;;;13.13;4.95;;;5.80;99.90;;;;;;5057122;28;20089;-65
2021/04/24 01:28:11;;;;;;;13.18;4.80;;;5.90;99.90;;;;;;5030483;28;20033;-65
2021/04/24 01:30:41;;;;;;;13.15;4.00;;;5.80;99.90;;;;;;5046890;28;20047;-65
2021/04/24 01:33:09;;;;;;;13.82;4.50;;;5.90;99.90;;;;;;5046771;28;20044;-65
2021/04/24 01:35:37;;;;;;;14.45;4.60;;;5.90;99.90;;;;;;5046892;28;20047;-65
2021/04/24 01:38:03;;;;;;;10.40;4.28;;;5.90;99.90;;;;;;5046499;28;20043;-65
2021/04/24 01:40:29;;;;;;;10.77;4.10;;;6.00;99.90;;;;;;5046975;28;20036;-65
2021/04/24 01:42:55;;;;;;;15.13;4.80;;;5.90;99.90;;;;;;5047051;28;20037;-66
2021/04/24 01:45:22;;;;;;;14.00;4.22;;;5.80;99.90;;;;;;5046667;28;20044;-65
2021/04/24 01:47:48;;;;;;;13.30;4.65;;;5.80;99.90;;;;;;5047435;28;20036;-65
2021/04/24 01:50:22;;;;;;;11.30;3.97;;;5.80;99.90;;;;;;5045977;28;20476;-66
2021/04/24 01:52:50;;;;;;;16.50;4.38;;;5.80;99.90;;;;;;5028231;28;20090;-65
2021/04/24 01:55:21;;;;;;;15.50;4.78;;;5.80;99.90;;;;;;5046658;28;20043;-65
2021/04/24 01:57:49;;;;;;;10.02;3.90;;;5.80;99.90;;;;;;5047014;28;20482;-65
2021/04/24 02:00:32;;;;;;;15.05;4.47;;;5.80;99.90;;;;;;5045934;28;20548;-66
2021/04/24 02:03:00;;;;;;;16.00;4.85;;;5.80;99.90;;;;;;5046619;28;20047;-65
2021/04/24 02:05:26;;;;;;;19.00;5.03;;;5.70;99.90;;;;;;5028788;28;20040;-67
2021/04/24 02:07:57;;;;;;;11.77;4.82;;;5.80;99.90;;;;;;5045671;28;20417;-66
2021/04/24 02:10:24;;;;;;;9.98;5.00;;;5.70;99.90;;;;;;5045771;28;20045;-65
2021/04/24 02:12:50;;;;;;;15.52;4.90;;;5.70;99.90;;;;;;5046003;28;20037;-65
2021/04/24 02:15:16;;;;;;;16.48;4.88;;;5.80;99.90;;;;;;5047168;28;20040;-64
2021/04/24 02:17:41;;;;;;;19.90;5.20;;;5.70;99.90;;;;;;5028602;28;20033;-64
2021/04/24 02:20:07;;;;;;;15.98;5.93;;;5.70;99.90;;;;;;5046574;28;20028;-64
2021/04/24 02:22:33;;;;;;;14.32;4.00;;;5.60;99.90;;;;;;5046786;28;20032;-65
2021/04/24 02:25:01;;;;;;;12.00;5.45;;;5.60;99.90;;;;;;5024714;28;20029;-63
2021/04/24 02:27:28;;;;;;;15.70;5.07;;;5.60;99.90;;;;;;5028710;28;20055;-64
2021/04/24 02:29:54;;;;;;;16.63;4.53;;;5.70;99.90;;;;;;5045382;28;20119;-64
2021/04/24 02:32:23;;;;;;;14.93;5.50;;;5.70;99.90;;;;;;5046924;28;20364;-65
2021/04/24 02:34:49;;;;;;;19.73;5.07;;;5.60;99.90;;;;;;5045881;28;20017;-64
2021/04/24 02:37:15;;;;;;;24.20;6.18;;;5.60;99.90;;;;;;5046336;28;20036;-64
2021/04/24 02:39:44;;;;;;;12.73;4.47;;;5.50;99.90;;;;;;5044007;28;20099;-64
2021/04/24 02:42:13;;;;;;;14.05;4.90;;;5.60;99.90;;;;;;5046237;28;20032;-65
2021/04/24 02:44:39;;;;;;;10.13;4.20;;;5.50;99.90;;;;;;5043435;28;20032;-64
2021/04/24 02:47:05;;;;;;;23.63;6.35;;;5.50;99.90;;;;;;5041751;28;20272;-63
2021/04/24 02:49:31;;;;;;;16.10;5.53;;;5.50;99.90;;;;;;5046117;28;20036;-64
2021/04/24 02:52:01;;;;;;;11.18;4.68;;;5.50;99.90;;;;;;5045947;28;20079;-63
2021/04/24 02:54:27;;;;;;;14.80;4.90;;;5.50;99.90;;;;;;5028740;28;20051;-64
2021/04/24 02:56:52;;;;;;;16.88;4.43;;;5.50;99.90;;;;;;5044909;28;20108;-65
2021/04/24 02:59:18;;;;;;;15.05;5.20;;;5.40;99.90;;;;;;5044470;28;20091;-65
2021/04/24 03:01:45;;;;;;;14.65;4.95;;;5.40;99.90;;;;;;5044648;28;20124;-64
2021/04/24 03:04:12;;;;;;;28.30;6.20;;;5.40;99.90;;;;;;5043798;28;20051;-64
2021/04/24 03:06:38;;;;;;;19.08;5.35;;;5.50;99.90;;;;;;5044425;28;20060;-64
2021/04/24 03:09:04;;;;;;;13.63;5.45;;;5.40;99.90;;;;;;5021596;28;20134;-64
2021/04/24 03:11:32;;;;;;;17.73;5.28;;;5.40;99.90;;;;;;5044709;28;20025;-64
2021/04/24 03:13:58;;;;;;;13.25;4.72;;;5.30;99.90;;;;;;5044574;28;20048;-64
2021/04/24 03:16:24;;;;;;;15.23;5.28;;;5.40;99.90;;;;;;5046310;28;20037;-64
2021/04/24 03:18:50;;;;;;;17.77;4.93;;;5.30;99.90;;;;;;5027671;28;20036;-64
2021/04/24 03:21:16;;;;;;;16.58;5.38;;;5.30;99.90;;;;;;5046247;28;20060;-63
2021/04/24 03:23:42;;;;;;;19.67;5.78;;;5.30;99.90;;;;;;5050500;28;20060;-64
2021/04/24 03:26:07;;;;;;;14.88;4.63;;;5.20;99.90;;;;;;5049651;28;20041;-63
2021/04/24 03:28:33;;;;;;;12.30;5.05;;;5.30;99.90;;;;;;5046293;28;20621;-64
2021/04/24 03:30:59;;;;;;;16.10;5.47;;;5.20;99.90;;;;;;5048609;28;20029;-64
2021/04/24 03:33:24;;;;;;;11.45;5.15;;;5.20;99.90;;;;;;5050103;28;20039;-64
2021/04/24 03:35:50;;;;;;;13.15;4.93;;;5.10;99.90;;;;;;5049640;28;20131;-64
2021/04/24 03:38:15;;;;;;;15.10;4.97;;;5.10;99.90;;;;;;5049803;28;20037;-65
2021/04/24 03:40:41;;;;;;;16.85;5.68;;;5.20;99.90;;;;;;5050057;28;20053;-64
2021/04/24 03:43:07;;;;;;;15.45;6.00;;;5.10;99.90;;;;;;5049222;28;20124;-65
2021/04/24 03:45:33;;;;;;;15.38;5.07;;;5.10;99.90;;;;;;5031043;28;20181;-66
2021/04/24 03:47:59;;;;;;;19.08;5.25;;;5.10;99.90;;;;;;5048708;28;20118;-64
2021/04/24 03:50:25;;;;;;;12.77;4.82;;;5.10;99.90;;;;;;5050067;28;20864;-64
2021/04/24 03:52:53;;;;;;;16.15;6.32;;;5.10;99.90;;;;;;5031949;28;20049;-65
2021/04/24 03:55:19;;;;;;;22.85;5.30;;;5.10;99.90;;;;;;5049984;28;20045;-63
2021/04/24 03:57:46;;;;;;;11.57;4.65;;;5.10;99.90;;;;;;5050975;28;20371;-64
2021/04/24 04:00:15;;;;;;;17.30;5.38;;;5.00;99.90;;;;;;5049539;28;20051;-64
2021/04/24 04:02:49;;;;;;;17.95;5.55;;;5.10;99.90;;;;;;5050868;28;20037;-64
2021/04/24 04:05:16;;;;;;;11.82;4.82;;;5.10;99.90;;;;;;5051881;28;20037;-64
2021/04/24 04:07:43;;;;;;;18.58;5.50;;;5.00;99.90;;;;;;5053137;28;20482;-64
2021/04/24 04:10:10;;;;;;;13.43;5.25;;;5.10;99.90;;;;;;5051317;28;20099;-63
2021/04/24 04:12:36;;;;;;;19.25;5.82;;;5.10;99.90;;;;;;5033466;28;20041;-64
2021/04/24 04:15:04;;;;;;;19.05;5.45;;;5.10;99.90;;;;;;5049563;28;20051;-65
2021/04/24 04:17:30;;;;;;;12.85;5.05;;;5.10;99.90;;;;;;5026562;28;20397;-64
2021/04/24 04:19:56;;;;;;;11.65;5.00;;;5.10;99.90;;;;;;5030563;28;20124;-63
2021/04/24 04:22:22;;;;;;;12.75;4.53;;;5.10;99.90;;;;;;5048593;28;20029;-63
2021/04/24 04:24:47;;;;;;;13.15;6.20;;;5.00;99.90;;;;;;5049435;28;20389;-64
2021/04/24 04:27:13;;;;;;;15.77;5.55;;;5.10;99.90;;;;;;5048311;28;20036;-65
2021/04/24 04:29:38;;;;;;;16.88;5.63;;;5.00;99.90;;;;;;5030680;28;20041;-64
2021/04/24 04:32:04;;;;;;;15.07;4.85;;;5.10;99.90;;;;;;5048840;28;20022;-63
2021/04/24 04:34:30;;;;;;;15.80;5.30;;;5.10;99.90;;;;;;5047738;28;20033;-64
2021/04/24 04:36:55;;;;;;;20.48;5.25;;;5.20;99.90;;;;;;5048684;28;20036;-64
2021/04/24 04:39:21;;;;;;;19.15;6.15;;;5.10;99.90;;;;;;5048629;28;20041;-64
2021/04/24 04:41:46;;;;;;;15.82;5.25;;;5.10;99.90;;;;;;5048736;28;20033;-64
2021/04/24 04:44:12;;;;;;;12.43;4.78;;;5.10;99.90;;;;;;5049023;28;20064;-64
2021/04/24 04:46:38;;;;;;;14.55;4.88;;;5.10;99.90;;;;;;5048621;28;20029;-64
2021/04/24 04:49:03;;;;;;;16.73;5.15;;;5.10;99.90;;;;;;5049236;28;20332;-64
2021/04/24 04:51:29;;;;;;;15.10;5.72;;;5.10;99.90;;;;;;5048781;28;20474;-64
2021/04/24 04:53:54;;;;;;;15.15;5.07;;;5.10;99.90;;;;;;5050019;28;20043;-65
2021/04/24 04:56:20;;;;;;;15.30;5.38;;;5.10;99.90;;;;;;5049677;28;20048;-64
2021/04/24 04:58:45;;;;;;;15.07;5.50;;;5.20;99.90;;;;;;5051113;28;20036;-63
2021/04/24 05:01:11;;;;;;;14.80;4.88;;;5.30;99.90;;;;;;5064756;28;20036;-66
2021/04/24 05:03:38;;;;;;;14.02;5.70;;;5.40;99.90;;;;;;5068803;28;20035;-64
2021/04/24 05:06:03;;;;;;;15.63;4.40;;;5.40;99.90;;;;;;5068990;28;20029;-65
2021/04/24 05:08:29;;;;;;;14.57;5.05;;;5.50;99.90;;;;;;5036230;28;20041;-64
2021/04/24 05:10:55;;;;;;;10.48;4.45;;;5.70;99.90;;;;;;5048244;28;20501;-65
2021/04/24 05:13:20;;;;;;;11.27;4.88;;;5.70;99.90;;;;;;5047378;28;20441;-63
2021/04/24 05:15:46;;;;;;;12.52;4.25;;;5.80;99.90;;;;;;5030216;28;20036;-64
2021/04/24 05:18:11;;;;;;;16.95;4.80;;;5.90;99.90;;;;;;5029314;28;20082;-64
2021/04/24 05:20:37;;;;;;;12.98;4.60;;;6.00;99.90;;;;;;5047689;28;20025;-64
2021/04/24 05:23:03;;;;;;;12.85;4.53;;;6.00;99.90;;;;;;5047391;28;20032;-64
2021/04/24 05:25:28;;;;;;;11.38;4.65;;;6.20;99.90;;;;;;5047467;28;20078;-64
2021/04/24 05:27:54;;;;;;;15.45;4.20;;;6.30;99.90;;;;;;5047253;28;20119;-63
2021/04/24 05:30:20;;;;;;;12.93;4.65;;;6.30;99.90;;;;;;5047554;28;20036;-64
2021/04/24 05:32:46;;;;;;;13.85;4.85;;;6.40;99.90;;;;;;5047482;28;20441;-64
2021/04/24 05:35:14;;;;;;;11.60;4.38;;;6.40;99.90;;;;;;5047418;28;20490;-64
2021/04/24 05:37:40;;;;;;;14.30;4.13;;;6.60;99.90;;;;;;5047286;28;20067;-64
2021/04/24 05:40:09;;;;;;;8.88;4.32;;;6.60;99.90;;;;;;5047152;28;20035;-64
2021/04/24 05:42:34;;;;;;;12.85;4.60;;;6.70;99.90;;;;;;5047357;28;20032;-66
2021/04/24 05:45:10;;;;;;;10.98;3.92;;;6.70;99.90;;;;;;5047578;28;20036;-63
2021/04/24 05:47:36;;;;;;;11.55;4.60;;;6.80;99.90;;;;;;5046121;28;20025;-64
2021/04/24 05:50:03;;;;;;;11.63;4.13;;;6.80;99.90;;;;;;5025130;28;20449;-63
2021/04/24 05:52:29;;;;;;;10.20;3.55;;;7.00;99.90;;;;;;5027393;28;20061;-64
2021/04/24 05:54:54;;;;;;;9.05;3.70;;;7.30;99.90;;;;;;5034676;28;20756;-66
2021/04/24 05:57:20;;;;;;;6.80;3.05;;;8.10;99.90;;;;;;5043303;28;20032;-64
2021/04/24 05:59:45;;;;;;;10.32;3.25;;;8.80;99.90;;;;;;5044538;28;20035;-64
2021/04/24 06:02:11;;;;;;;9.88;3.28;;;9.40;99.90;;;;;;5026136;28;20091;-65
2021/04/24 06:04:36;;;;;;;8.65;3.00;;;10.40;99.90;;;;;;5044242;28;20029;-64
2021/04/24 06:07:03;;;;;;;9.98;3.33;;;11.20;99.90;;;;;;5043793;28;20029;-64
2021/04/24 06:09:28;;;;;;;7.05;2.55;;;11.70;99.90;;;;;;5044288;28;20033;-65
2021/04/24 06:11:54;;;;;;;6.20;2.42;;;12.50;99.90;;;;;;5044396;28;20040;-67
2021/04/24 06:14:19;;;;;;;6.30;2.50;;;13.30;99.90;;;;;;5044498;28;20394;-64
2021/04/24 06:16:45;;;;;;;7.18;2.40;;;13.70;99.90;;;;;;5044778;28;20036;-65
2021/04/24 06:19:11;;;;;;;9.27;2.92;;;14.20;97.30;;;;;;5044171;28;20479;-64
2021/04/24 06:21:36;;;;;;;5.28;2.20;;;14.20;94.60;;;;;;5042797;28;20033;-65
2021/04/24 06:24:02;;;;;;;5.03;2.22;;;14.00;93.50;;;;;;5046364;28;20102;-65
2021/04/24 06:26:27;;;;;;;5.55;1.80;;;14.00;93.60;;;;;;5046159;28;20064;-64
2021/04/24 06:28:53;;;;;;;4.68;2.05;;;14.10;94.20;;;;;;5041603;28;20048;-65
2021/04/24 06:31:19;;;;;;;6.63;2.33;;;14.00;94.20;;;;;;5046343;28;20032;-65
2021/04/24 06:33:44;;;;;;;6.50;1.95;;;14.00;93.00;;;;;;5045942;28;20528;-64
2021/04/24 06:36:10;;;;;;;5.38;1.85;;;13.80;94.10;;;;;;5046378;28;20532;-65
2021/04/24 06:38:35;;;;;;;3.33;1.77;;;13.50;94.40;;;;;;5045341;28;20037;-64
2021/04/24 06:41:01;;;;;;;7.78;2.30;;;13.30;93.80;;;;;;5046055;28;20448;-64
2021/04/24 06:43:27;;;;;;;4.55;1.92;;;13.30;94.90;;;;;;5046186;28;20037;-65
2021/04/24 06:45:52;;;;;;;9.63;2.45;;;13.30;95.80;;;;;;5047888;28;20029;-65
2021/04/24 06:48:18;;;;;;;4.40;2.05;;;13.40;94.50;;;;;;5049297;28;20029;-65
2021/04/24 06:50:43;;;;;;;4.70;2.03;;;13.20;94.80;;;;;;5049168;28;20037;-65
2021/04/24 06:53:09;;;;;;;6.53;1.90;;;13.40;95.00;;;;;;5050190;28;20040;-65
2021/04/24 06:55:35;;;;;;;2.80;1.90;;;13.90;93.40;;;;;;5048873;28;20106;-65
2021/04/24 06:58:00;;;;;;;6.30;1.85;;;14.60;93.40;;;;;;5049125;28;20056;-64
2021/04/24 07:00:27;;;;;;;5.57;1.95;;;15.30;89.10;;;;;;5031829;28;20589;-65
2021/04/24 07:02:52;;;;;;;5.10;1.80;;;15.50;83.50;;;;;;5050696;28;20057;-65
2021/04/24 07:05:18;;;;;;;5.15;1.80;;;15.20;81.40;;;;;;5050221;28;20087;-64
2021/04/24 07:07:44;;;;;;;6.30;2.30;;;15.00;84.80;;;;;;5049337;28;20398;-65
2021/04/24 07:10:11;;;;;;;5.40;1.92;;;15.30;81.40;;;;;;5046599;28;20401;-64
2021/04/24 07:12:37;;;;;;;2.92;1.52;;;15.50;78.60;;;;;;5046667;28;20502;-65
2021/04/24 07:15:04;;;;;;;5.30;2.10;;;15.20;78.20;;;;;;5049846;28;20108;-65
2021/04/24 07:17:30;;;;;;;4.22;1.80;;;14.80;81.50;;;;;;5047569;28;20040;-64
2021/04/24 07:19:56;;;;;;;5.72;2.15;;;15.00;81.20;;;;;;5046785;28;20029;-65
2021/04/24 07:22:21;;;;;;;5.35;1.70;;;15.30;76.60;;;;;;5049899;28;20113;-66
2021/04/24 07:24:47;;;;;;;5.75;1.70;;;15.50;76.70;;;;;;5048044;28;20032;-65
2021/04/24 07:27:14;;;;;;;3.85;1.70;;;15.40;77.20;;;;;;5026520;28;20052;-64
2021/04/24 07:29:40;;;;;;;5.43;2.00;;;15.70;75.40;;;;;;5025842;28;20034;-65
2021/04/24 07:32:07;;;;;;;5.20;2.13;;;15.70;73.80;;;;;;5029744;28;20025;-64
2021/04/24 07:34:32;;;;;;;7.55;2.10;;;15.60;72.50;;;;;;5047546;28;20033;-65
2021/04/24 07:36:59;;;;;;;3.33;1.83;;;15.10;76.20;;;;;;5043825;28;20034;-65
2021/04/24 07:39:24;;;;;;;6.90;2.67;;;15.00;75.40;;;;;;5028530;28;20044;-66
2021/04/24 07:41:50;;;;;;;3.92;1.60;;;14.60;76.10;;;;;;5043069;28;20567;-64
2021/04/24 07:44:15;;;;;;;4.63;1.52;;;14.40;71.00;;;;;;5046827;28;20040;-64
2021/04/24 07:46:41;;;;;;;4.95;2.03;;;14.00;72.20;;;;;;5030839;28;20028;-65
2021/04/24 07:49:06;;;;;;;4.20;2.63;;;13.80;75.30;;;;;;5029136;28;20033;-65
2021/04/24 07:51:32;;;;;;;5.72;1.45;;;13.80;76.70;;;;;;5048264;28;20457;-64
2021/04/24 07:53:57;;;;;;;3.58;1.77;;;13.60;76.80;;;;;;5048049;28;20849;-64
2021/04/24 07:56:23;;;;;;;4.93;1.90;;;13.70;74.80;;;;;;5048230;28;20041;-65
2021/04/24 07:58:49;;;;;;;7.38;1.75;;;13.90;75.50;;;;;;5048712;28;20158;-65
2021/04/24 08:01:14;;;;;;;4.28;1.45;;;13.80;75.00;;;;;;5046111;28;20260;-64
2021/04/24 08:03:40;;;;;;;4.75;1.70;;;13.90;74.10;;;;;;5048025;28;20132;-65
2021/04/24 08:06:06;;;;;;;4.13;1.60;;;13.70;76.00;;;;;;5043913;28;20487;-64
2021/04/24 08:08:32;;;;;;;3.80;1.98;;;13.60;76.60;;;;;;5042145;28;20036;-64
2021/04/24 08:10:57;;;;;;;9.02;1.85;;;13.50;77.70;;;;;;5046365;28;20469;-63
2021/04/24 08:13:23;;;;;;;4.93;1.50;;;13.30;79.20;;;;;;5027085;28;20136;-64
2021/04/24 08:15:49;;;;;;;2.75;0.77;;;13.30;77.90;;;;;;5047053;28;21030;-66
2021/04/24 08:18:15;;;;;;;3.72;1.15;;;13.30;77.00;;;;;;5025450;28;20068;-66
2021/04/24 08:20:40;;;;;;;3.47;1.00;;;13.30;75.40;;;;;;5046300;28;20490;-65
2021/04/24 08:23:06;;;;;;;2.50;1.27;;;13.30;75.00;;;;;;5047725;28;20447;-63
2021/04/24 08:25:32;;;;;;;2.33;0.75;;;13.30;75.90;;;;;;5047820;28;20029;-64
2021/04/24 08:27:58;;;;;;;3.03;1.00;;;13.30;71.00;;;;;;5046929;28;20060;-64
2021/04/24 08:30:24;;;;;;;5.25;1.60;;;13.40;72.00;;;;;;5046954;28;20734;-64
2021/04/24 08:32:50;;;;;;;2.30;0.88;;;13.40;72.30;;;;;;5029892;28;20048;-64
2021/04/24 08:35:16;;;;;;;4.43;1.05;;;13.30;69.40;;;;;;5046433;28;20533;-64
2021/04/24 08:37:43;;;;;;;3.00;1.40;;;12.90;70.20;;;;;;5054084;28;20121;-65
2021/04/24 08:40:11;;;;;;;3.05;1.08;;;13.10;71.30;;;;;;5052451;28;20067;-64
2021/04/24 08:42:36;;;;;;;3.65;1.20;;;13.30;70.90;;;;;;5052646;28;20041;-64
2021/04/24 08:45:14;;;;;;;2.55;1.33;;;13.30;70.40;;;;;;5066761;28;20064;-65
2021/04/24 08:47:46;;;;;;;2.58;1.02;;;13.40;69.70;;;;;;5070852;28;20316;-64
2021/04/24 08:50:15;;;;;;;3.05;1.30;;;13.10;71.40;;;;;;5050509;28;20025;-62
2021/04/24 08:52:41;;;;;;;2.40;0.82;;;13.20;69.80;;;;;;5034989;28;20037;-65
2021/04/24 08:55:08;;;;;;;2.85;1.17;;;13.20;68.50;;;;;;5054475;28;20570;-64
2021/04/24 08:57:37;;;;;;;2.83;1.00;;;13.30;69.50;;;;;;5049645;28;20029;-65
2021/04/24 09:00:05;;;;;;;1.73;0.80;;;13.40;70.50;;;;;;5047804;28;20493;-65
2021/04/24 09:02:31;;;;;;;3.60;1.00;;;13.50;66.90;;;;;;5053974;28;20043;-64
2021/04/24 09:04:56;;;;;;;4.40;1.48;;;13.60;67.40;;;;;;5057281;28;20159;-64
2021/04/24 09:07:22;;;;;;;3.67;1.00;;;13.70;64.50;;;;;;5053025;28;20041;-64
2021/04/24 09:09:57;;;;;;;3.67;0.85;;;13.60;63.50;;;;;;5048086;28;20048;-64
2021/04/24 09:12:55;;;;;;;3.95;0.70;;;13.50;64.30;;;;;;5053020;28;20037;-64
2021/04/24 09:15:24;;;;;;;1.85;0.57;;;13.40;64.30;;;;;;5014569;28;20067;-64
2021/04/24 09:17:55;;;;;;;1.83;0.80;;;13.50;61.40;;;;;;5048236;28;20148;-64
2021/04/24 09:20:22;;;;;;;2.47;0.80;;;13.30;60.90;;;;;;5047059;28;20044;-64
2021/04/24 09:23:07;;;;;;;2.30;0.95;;;13.30;62.10;;;;;;5048456;28;20033;-62
2021/04/24 09:25:50;;;;;;;2.63;1.13;;;13.20;61.60;;;;;;5048274;28;20482;-64
2021/04/24 09:28:45;;;;;;;4.15;1.00;;;13.00;64.00;;;;;;5043993;28;20417;-65
2021/04/24 09:31:17;;;;;;;2.72;0.80;;;13.10;64.70;;;;;;5048956;28;20056;-65
2021/04/24 09:33:46;;;;;;;3.60;1.33;;;13.30;64.70;;;;;;5043997;28;20083;-65
2021/04/24 09:36:13;;;;;;;3.10;0.70;;;13.50;64.00;;;;;;5048060;28;20048;-65
2021/04/24 09:38:41;;;;;;;4.13;1.08;;;13.50;60.80;;;;;;5047132;28;20044;-65
2021/04/24 09:41:15;;;;;;;3.80;1.52;;;13.40;60.40;;;;;;5050881;28;20086;-65
2021/04/24 09:43:53;;;;;;;4.03;1.20;;;13.60;61.40;;;;;;5051911;28;20394;-62
2021/04/24 09:46:21;;;;;;;4.45;1.05;;;13.70;61.40;;;;;;5048380;28;20128;-64
2021/04/24 09:48:47;;;;;;;2.47;0.90;;;13.60;61.10;;;;;;5052691;28;20036;-65
2021/04/24 09:51:14;;;;;;;2.53;1.33;;;13.80;62.30;;;;;;5049991;28;20394;-65
2021/04/24 09:53:39;;;;;;;3.50;1.10;;;13.80;61.90;;;;;;5044185;28;20037;-64
2021/04/24 09:56:05;;;;;;;3.30;1.02;;;14.00;60.00;;;;;;5045431;28;20044;-65
2021/04/24 09:58:35;;;;;;;2.80;1.23;;;14.20;59.90;;;;;;5044266;28;20402;-65
2021/04/24 10:01:41;;;;;;;;;;;14.20;61.00;;;;;;5045498;28;20043;-65
2021/04/24 10:04:11;;;;;;;3.92;1.15;;;14.00;61.70;;;;;;4908130;29;19962;-65
2021/04/24 10:06:42;;;;;;;14.23;1.13;;;14.40;60.90;;;;;;4905561;29;20046;-64
2021/04/24 10:09:17;;;;;;;8.25;1.90;;;14.50;59.80;;;;;;4979650;28;20060;-64
2021/04/24 10:11:51;;;;;;;2.47;1.10;;;14.60;57.70;;;;;;5042651;28;20124;-64
2021/04/24 10:14:39;;;;;;;2.15;1.20;;;14.70;57.10;;;;;;5042802;28;20053;-64
2021/04/24 10:17:12;;;;;;;2.95;1.50;;;14.50;58.90;;;;;;5042227;28;20032;-64
2021/04/24 10:19:39;;;;;;;2.92;1.30;;;14.50;58.70;;;;;;5044402;28;20029;-65
2021/04/24 10:22:09;;;;;;;4.00;1.40;;;14.40;59.70;;;;;;5045941;28;20036;-64
2021/04/24 10:24:35;;;;;;;4.88;1.40;;;14.50;60.20;;;;;;5050057;28;20045;-64
2021/04/24 10:27:01;;;;;;;4.30;1.40;;;14.60;59.20;;;;;;5052300;28;20032;-65
2021/04/24 10:29:27;;;;;;;2.85;1.42;;;14.80;59.10;;;;;;5048649;28;20055;-64
2021/04/24 10:31:55;;;;;;;4.53;1.35;;;15.20;58.50;;;;;;5030027;28;20032;-64
2021/04/24 10:34:21;;;;;;;3.00;1.25;;;15.50;58.60;;;;;;5044889;28;20044;-65
2021/04/24 10:36:47;;;;;;;3.67;1.70;;;15.80;57.50;;;;;;5044663;28;20029;-64
2021/04/24 10:39:18;;;;;;;2.95;1.38;;;16.00;56.10;;;;;;5044440;28;20442;-65
2021/04/24 10:41:49;;;;;;;4.53;1.40;;;16.30;57.00;;;;;;5026850;28;20041;-64
2021/04/24 10:44:15;;;;;;;2.92;1.52;;;16.40;56.40;;;;;;5044816;28;20052;-65
2021/04/24 10:46:58;;;;;;;4.22;1.45;;;16.40;54.20;;;;;;5044932;28;20033;-64
2021/04/24 10:49:24;;;;;;;6.68;1.52;;;16.30;54.40;;;;;;5043101;28;20379;-64
2021/04/24 10:51:55;;;;;;;3.03;1.42;;;16.10;54.50;;;;;;5044837;28;20067;-64
2021/04/24 10:54:21;;;;;;;9.73;1.45;;;16.10;53.20;;;;;;5044898;28;20049;-64
2021/04/24 10:56:47;;;;;;;5.93;0.90;;;16.10;54.20;;;;;;5043843;28;20089;-64
2021/04/24 10:59:31;;;;;;;6.00;0.98;;;15.90;54.40;;;;;;5044169;28;20445;-65
2021/04/24 11:02:06;;;;;;;2.30;0.77;;;15.60;55.90;;;;;;5043797;28;20037;-64
2021/04/24 11:04:43;;;;;;;2.35;1.13;;;15.50;55.80;;;;;;5043937;28;20041;-64
2021/04/24 11:07:19;;;;;;;4.72;0.98;;;15.60;56.50;;;;;;5033859;28;20033;-65
2021/04/24 11:09:56;;;;;;;1.60;0.68;;;15.70;56.20;;;;;;5040158;28;20048;-64
2021/04/24 11:12:21;;;;;;;2.47;0.93;;;15.50;56.00;;;;;;5043915;28;20486;-64
2021/04/24 11:14:48;;;;;;;3.80;0.70;;;15.50;56.30;;;;;;5042845;28;20053;-64
2021/04/24 11:17:14;;;;;;;1.30;0.77;;;15.30;56.40;;;;;;5045556;28;20039;-64
2021/04/24 11:19:43;;;;;;;1.83;0.80;;;15.20;56.00;;;;;;5045094;28;20091;-64
2021/04/24 11:22:32;;;;;;;3.35;0.90;;;15.00;57.20;;;;;;5042327;28;20348;-65
2021/04/24 11:25:16;;;;;;;2.42;0.90;;;15.00;57.00;;;;;;5032488;28;20039;-64
2021/04/24 11:28:08;;;;;;;1.85;1.08;;;14.80;56.80;;;;;;5036578;28;20401;-64
2021/04/24 11:30:50;;;;;;;3.90;0.98;;;14.70;57.90;;;;;;5039303;28;20029;-64
2021/04/24 11:33:38;;;;;;;7.57;1.23;;;14.70;59.80;;;;;;5039298;28;20049;-64
2021/04/24 11:36:13;;;;;;;4.63;1.10;;;14.60;60.50;;;;;;5037410;28;20033;-64
2021/04/24 11:39:00;;;;;;;2.40;0.77;;;14.70;60.70;;;;;;5040310;28;20037;-65
2021/04/24 11:41:32;;;;;;;3.88;1.30;;;14.80;60.20;;;;;;5044086;28;20232;-62
2021/04/24 11:43:58;;;;;;;4.47;1.20;;;14.70;60.30;;;;;;5029756;28;20048;-63
2021/04/24 11:46:34;;;;;;;5.95;1.35;;;14.50;60.90;;;;;;5049128;28;20032;-62
2021/04/24 11:49:14;;;;;;;3.20;1.30;;;14.30;61.60;;;;;;5051216;28;20041;-62
2021/04/24 11:51:40;;;;;;;;;;;14.30;62.10;;;;;;5056548;28;20402;-62
2021/04/24 11:54:23;;;;;;;4.70;1.33;;;14.40;61.80;;;;;;5044487;28;19919;-62
2021/04/24 11:56:49;;;;;;;5.05;2.05;;;14.40;61.40;;;;;;5048817;28;20017;-64
2021/04/24 11:59:33;;;;;;;2.72;1.58;;;14.40;62.90;;;;;;5049629;28;20074;-62
2021/04/24 12:02:03;;;;;;;11.43;2.03;;;14.20;63.50;;;;;;5050333;28;20655;-63
2021/04/24 12:04:29;;;;;;;;;;;14.20;62.10;;;;;;5032589;28;20025;-63
2021/04/24 12:07:06;;;;;;;6.50;1.90;;;14.20;62.30;;;;;;5046695;28;19909;-63
2021/04/24 12:09:53;;;;;;;5.60;1.70;;;14.30;62.80;;;;;;5048853;28;20025;-63
2021/04/24 12:12:33;;;;;;;5.72;2.10;;;14.50;63.30;;;;;;5047231;28;20044;-66
2021/04/24 12:15:10;;;;;;;8.68;2.03;;;14.50;64.10;;;;;;5050602;28;20269;-63
2021/04/24 12:17:46;;;;;;;3.90;1.65;;;14.50;64.40;;;;;;5047802;28;20035;-63
2021/04/24 12:20:39;;;;;;;6.32;2.40;;;14.50;63.70;;;;;;5048193;28;20075;-63
2021/04/24 12:23:06;;;;;;;4.88;2.40;;;14.50;65.30;;;;;;5040543;28;20457;-64
2021/04/24 12:25:34;;;;;;;5.45;2.08;;;14.60;65.10;;;;;;5042014;28;20025;-62
2021/04/24 12:28:06;;;;;;;11.13;2.05;;;14.50;65.70;;;;;;5057747;28;20025;-64
2021/04/24 12:30:34;;;;;;;5.32;2.70;;;14.20;65.70;;;;;;5068852;28;20036;-63
2021/04/24 12:33:14;;;;;;;4.10;1.83;;;14.20;67.00;;;;;;5066558;28;20105;-64
2021/04/24 12:35:47;;;;;;;6.63;2.17;;;14.20;68.70;;;;;;5059046;28;20317;-63
2021/04/24 12:38:24;;;;;;;6.63;2.20;;;14.30;67.00;;;;;;5046081;28;20044;-63
2021/04/24 12:40:57;;;;;;;5.20;2.28;;;14.20;67.30;;;;;;5046087;28;20117;-63
2021/04/24 12:43:31;;;;;;;9.00;2.40;;;14.10;68.10;;;;;;5045713;28;20041;-63
2021/04/24 12:46:08;;;;;;;8.23;2.72;;;14.00;69.30;;;;;;5045190;28;20037;-63
2021/04/24 12:48:36;;;;;;;8.23;2.63;;;14.10;69.40;;;;;;5041743;28;20349;-63
2021/04/24 12:51:04;;;;;;;8.82;2.58;;;14.00;69.10;;;;;;5046335;28;20032;-62
2021/04/24 12:53:40;;;;;;;6.10;2.65;;;13.90;70.20;;;;;;5043908;28;20166;-63